createdAt,value
2022-12-27T00:00:58.061Z,0.00
2022-12-27T00:01:57.795Z,0.00
2022-12-27T00:02:57.906Z,0.00
2022-12-27T00:03:57.849Z,0.00
2022-12-27T00:04:57.635Z,0.00
2022-12-27T00:05:57.660Z,0.00
2022-12-27T00:06:57.575Z,0.00
2022-12-27T00:07:57.676Z,0.00
2022-12-27T00:08:57.453Z,0.00
2022-12-27T00:09:57.595Z,0.00
2022-12-27T00:10:57.355Z,0.00
2022-12-27T00:12:00.109Z,0.00
2022-12-27T00:12:57.455Z,0.00
2022-12-27T00:13:57.413Z,0.00
2022-12-27T00:14:57.426Z,0.00
2022-12-27T00:15:57.146Z,0.00
2022-12-27T00:16:57.229Z,0.00
2022-12-27T00:17:57.033Z,0.00
2022-12-27T00:18:57.049Z,0.00
2022-12-27T00:19:56.941Z,0.00
2022-12-27T00:20:57.023Z,0.00
2022-12-27T00:21:56.849Z,0.00
2022-12-27T00:22:57.066Z,0.00
2022-12-27T00:23:56.759Z,0.00
2022-12-27T00:24:56.882Z,0.00
2022-12-27T00:25:56.664Z,0.00
2022-12-27T00:26:56.689Z,0.00
2022-12-27T00:27:56.581Z,0.00
2022-12-27T00:28:56.722Z,0.00
2022-12-27T00:29:56.477Z,0.00
2022-12-27T00:30:56.515Z,0.00
2022-12-27T00:31:56.781Z,0.00
2022-12-27T00:32:56.528Z,0.00
2022-12-27T00:33:56.294Z,0.00
2022-12-27T00:34:56.339Z,0.00
2022-12-27T00:35:56.203Z,0.00
2022-12-27T00:36:56.358Z,0.00
2022-12-27T00:37:56.118Z,0.00
2022-12-27T00:38:56.166Z,0.00
2022-12-27T00:39:56.015Z,0.00
2022-12-27T00:40:56.177Z,0.00
2022-12-27T00:41:55.922Z,0.00
2022-12-27T00:42:56.208Z,0.00
2022-12-27T00:43:55.839Z,0.00
2022-12-27T00:44:56.000Z,0.00
2022-12-27T00:45:55.813Z,0.00
2022-12-27T00:46:55.835Z,0.00
2022-12-27T00:47:55.648Z,0.00
2022-12-27T00:48:55.620Z,0.00
2022-12-27T00:49:55.560Z,0.00
2022-12-27T00:50:55.655Z,0.00
2022-12-27T00:51:55.723Z,0.00
2022-12-27T00:52:55.675Z,0.00
2022-12-27T00:53:55.370Z,0.00
2022-12-27T00:54:55.333Z,0.00
2022-12-27T00:55:55.469Z,0.00
2022-12-27T00:56:55.227Z,0.00
2022-12-27T00:57:55.286Z,0.00
2022-12-27T00:58:55.347Z,0.00
2022-12-27T00:59:55.091Z,0.00
2022-12-27T01:00:55.068Z,0.00
2022-12-27T01:01:55.165Z,0.00
2022-12-27T01:02:55.165Z,0.00
2022-12-27T01:03:55.154Z,0.00
2022-12-27T01:04:54.866Z,0.00
2022-12-27T01:05:54.928Z,0.00
2022-12-27T01:06:54.773Z,0.00
2022-12-27T01:07:54.944Z,0.00
2022-12-27T01:08:54.707Z,0.00
2022-12-27T01:09:54.750Z,0.00
2022-12-27T01:10:54.586Z,0.00
2022-12-27T01:11:54.776Z,0.00
2022-12-27T01:12:54.529Z,0.00
2022-12-27T01:13:54.780Z,0.00
2022-12-27T01:14:54.410Z,0.00
2022-12-27T01:15:54.594Z,0.00
2022-12-27T01:16:54.349Z,0.00
2022-12-27T01:17:54.298Z,0.00
2022-12-27T01:18:55.432Z,0.00
2022-12-27T01:19:54.181Z,0.00
2022-12-27T01:20:54.235Z,0.00
2022-12-27T01:21:54.080Z,0.00
2022-12-27T01:22:54.231Z,0.00
2022-12-27T01:23:54.252Z,0.00
2022-12-27T01:24:53.941Z,0.00
2022-12-27T01:25:54.046Z,0.00
2022-12-27T01:26:53.855Z,0.00
2022-12-27T01:27:54.068Z,0.00
2022-12-27T01:28:53.801Z,0.00
2022-12-27T01:29:53.725Z,0.00
2022-12-27T01:30:53.887Z,0.00
2022-12-27T01:31:53.633Z,0.00
2022-12-27T01:32:53.689Z,0.00
2022-12-27T01:33:53.755Z,0.00
2022-12-27T01:34:53.711Z,0.00
2022-12-27T01:35:53.437Z,0.00
2022-12-27T01:36:53.514Z,0.00
2022-12-27T01:37:53.346Z,0.00
2022-12-27T01:38:53.535Z,0.00
2022-12-27T01:39:53.283Z,0.00
2022-12-27T01:40:53.343Z,0.00
2022-12-27T01:41:53.396Z,0.00
2022-12-27T01:42:53.356Z,0.00
2022-12-27T01:43:53.068Z,0.00
2022-12-27T01:44:53.167Z,0.00
2022-12-27T01:45:53.036Z,0.00
2022-12-27T01:46:52.949Z,0.00
2022-12-27T01:47:53.048Z,0.00
2022-12-27T01:48:52.993Z,0.00
2022-12-27T01:49:52.792Z,0.00
2022-12-27T01:50:53.002Z,0.00
2022-12-27T01:51:52.695Z,0.00
2022-12-27T01:52:52.651Z,0.00
2022-12-27T01:53:52.832Z,0.00
2022-12-27T01:54:52.556Z,0.00
2022-12-27T01:55:52.633Z,0.00
2022-12-27T01:56:52.472Z,0.00
2022-12-27T01:57:52.854Z,0.00
2022-12-27T01:58:52.374Z,0.00
2022-12-27T01:59:52.453Z,0.00
2022-12-27T02:00:52.327Z,0.00
2022-12-27T02:01:52.571Z,0.00
2022-12-27T02:02:52.286Z,0.00
2022-12-27T02:03:52.286Z,0.00
2022-12-27T02:04:52.097Z,0.00
2022-12-27T02:05:52.294Z,0.00
2022-12-27T02:06:52.001Z,0.00
2022-12-27T02:07:52.119Z,0.00
2022-12-27T02:08:51.966Z,0.00
2022-12-27T02:09:52.140Z,0.00
2022-12-27T02:10:51.841Z,0.00
2022-12-27T02:11:51.925Z,0.00
2022-12-27T02:12:51.724Z,0.00
2022-12-27T02:13:52.075Z,0.00
2022-12-27T02:14:51.634Z,0.00
2022-12-27T02:15:51.827Z,0.00
2022-12-27T02:16:51.575Z,0.00
2022-12-27T02:17:51.570Z,0.00
2022-12-27T02:18:51.452Z,0.00
2022-12-27T02:19:51.579Z,0.00
2022-12-27T02:20:51.360Z,0.00
2022-12-27T02:21:51.339Z,0.00
2022-12-27T02:22:51.601Z,0.00
2022-12-27T02:23:51.236Z,0.00
2022-12-27T02:24:51.433Z,0.00
2022-12-27T02:25:51.151Z,0.00
2022-12-27T02:26:51.229Z,0.00
2022-12-27T02:27:51.032Z,0.00
2022-12-27T02:28:51.248Z,0.00
2022-12-27T02:29:50.939Z,0.00
2022-12-27T02:30:51.058Z,0.00
2022-12-27T02:31:50.853Z,0.00
2022-12-27T02:32:51.059Z,0.00
2022-12-27T02:33:50.758Z,0.00
2022-12-27T02:34:51.076Z,0.00
2022-12-27T02:35:50.668Z,0.00
2022-12-27T02:36:50.885Z,0.00
2022-12-27T02:37:50.588Z,0.00
2022-12-27T02:38:50.693Z,0.00
2022-12-27T02:39:50.488Z,0.00
2022-12-27T02:40:50.705Z,0.00
2022-12-27T02:41:50.391Z,0.00
2022-12-27T02:42:50.519Z,0.00
2022-12-27T02:43:50.311Z,0.00
2022-12-27T02:44:50.378Z,0.00
2022-12-27T02:45:50.270Z,0.00
2022-12-27T02:46:50.360Z,0.00
2022-12-27T02:47:50.115Z,0.00
2022-12-27T02:48:50.151Z,0.00
2022-12-27T02:49:50.029Z,0.00
2022-12-27T02:50:49.986Z,0.00
2022-12-27T02:51:49.938Z,0.00
2022-12-27T02:52:49.982Z,0.00
2022-12-27T02:53:49.835Z,0.00
2022-12-27T02:54:49.998Z,0.00
2022-12-27T02:55:49.999Z,0.00
2022-12-27T02:56:49.856Z,0.00
2022-12-27T02:57:49.806Z,0.00
2022-12-27T02:58:49.612Z,0.00
2022-12-27T02:59:49.824Z,0.00
2022-12-27T03:00:49.511Z,0.00
2022-12-27T03:01:49.775Z,0.00
2022-12-27T03:02:49.604Z,0.00
2022-12-27T03:03:49.387Z,0.00
2022-12-27T03:04:49.470Z,0.00
2022-12-27T03:05:49.295Z,0.00
2022-12-27T03:06:49.470Z,0.00
2022-12-27T03:07:49.221Z,0.00
2022-12-27T03:08:49.274Z,0.00
2022-12-27T03:09:49.094Z,0.00
2022-12-27T03:10:49.294Z,0.00
2022-12-27T03:11:49.007Z,0.00
2022-12-27T03:12:49.097Z,0.00
2022-12-27T03:13:49.163Z,0.00
2022-12-27T03:14:49.120Z,0.00
2022-12-27T03:15:48.878Z,0.00
2022-12-27T03:16:48.929Z,0.00
2022-12-27T03:17:48.731Z,0.00
2022-12-27T03:18:48.944Z,0.00
2022-12-27T03:19:48.952Z,0.00
2022-12-27T03:20:48.603Z,0.00
2022-12-27T03:21:48.760Z,0.00
2022-12-27T03:22:48.509Z,0.00
2022-12-27T03:23:48.508Z,0.00
2022-12-27T03:24:48.407Z,0.00
2022-12-27T03:25:48.568Z,0.00
2022-12-27T03:26:48.589Z,0.00
2022-12-27T03:27:48.270Z,0.00
2022-12-27T03:28:48.326Z,0.00
2022-12-27T03:29:48.182Z,0.00
2022-12-27T03:30:48.437Z,0.00
2022-12-27T03:31:48.101Z,0.00
2022-12-27T03:32:48.219Z,0.00
2022-12-27T03:33:47.999Z,0.00
2022-12-27T03:34:48.031Z,0.00
2022-12-27T03:35:48.093Z,0.00
2022-12-27T03:36:48.041Z,0.00
2022-12-27T03:37:47.813Z,0.00
2022-12-27T03:38:47.852Z,0.00
2022-12-27T03:39:47.723Z,0.00
2022-12-27T03:40:47.871Z,0.00
2022-12-27T03:41:47.641Z,0.00
2022-12-27T03:42:47.586Z,0.00
2022-12-27T03:43:47.687Z,0.00
2022-12-27T03:44:47.491Z,0.00
2022-12-27T03:45:47.713Z,0.00
2022-12-27T03:46:47.525Z,0.00
2022-12-27T03:47:48.746Z,0.00
2022-12-27T03:48:47.518Z,0.00
2022-12-27T03:49:47.258Z,0.00
2022-12-27T03:50:47.328Z,0.00
2022-12-27T03:51:47.159Z,0.00
2022-12-27T03:52:47.347Z,0.00
2022-12-27T03:53:47.091Z,0.00
2022-12-27T03:54:47.210Z,0.00
2022-12-27T03:55:47.163Z,0.00
2022-12-27T03:56:46.934Z,0.00
2022-12-27T03:57:46.972Z,0.00
2022-12-27T03:58:46.840Z,0.00
2022-12-27T03:59:46.995Z,0.00
2022-12-27T04:00:47.042Z,0.00
2022-12-27T04:01:46.929Z,0.00
2022-12-27T04:02:46.844Z,0.00
2022-12-27T04:03:46.745Z,0.00
2022-12-27T04:04:46.556Z,0.00
2022-12-27T04:05:46.621Z,0.00
2022-12-27T04:06:46.470Z,0.00
2022-12-27T04:07:46.840Z,0.00
2022-12-27T04:08:46.383Z,0.00
2022-12-27T04:09:46.446Z,0.00
2022-12-27T04:10:46.301Z,0.00
2022-12-27T04:11:46.242Z,0.00
2022-12-27T04:12:46.189Z,0.00
2022-12-27T04:13:46.270Z,0.00
2022-12-27T04:14:46.331Z,0.00
2022-12-27T04:15:46.282Z,0.00
2022-12-27T04:16:46.041Z,0.00
2022-12-27T04:17:45.964Z,0.00
2022-12-27T04:18:46.098Z,0.00
2022-12-27T04:19:45.915Z,0.00
2022-12-27T04:20:46.117Z,0.00
2022-12-27T04:21:45.795Z,0.00
2022-12-27T04:22:45.925Z,0.00
2022-12-27T04:23:45.931Z,0.00
2022-12-27T04:24:45.653Z,0.00
2022-12-27T04:25:45.955Z,0.00
2022-12-27T04:26:45.548Z,0.00
2022-12-27T04:27:45.681Z,0.00
2022-12-27T04:28:45.458Z,0.00
2022-12-27T04:29:45.426Z,0.00
2022-12-27T04:30:45.582Z,0.00
2022-12-27T04:31:45.342Z,0.00
2022-12-27T04:32:45.387Z,0.00
2022-12-27T04:33:45.231Z,0.00
2022-12-27T04:34:45.207Z,0.00
2022-12-27T04:35:45.138Z,0.00
2022-12-27T04:36:45.417Z,0.00
2022-12-27T04:37:45.047Z,0.00
2022-12-27T04:38:45.226Z,0.00
2022-12-27T04:39:44.955Z,0.00
2022-12-27T04:40:44.903Z,0.00
2022-12-27T04:41:45.048Z,0.00
2022-12-27T04:42:44.856Z,0.00
2022-12-27T04:43:45.051Z,0.00
2022-12-27T04:44:44.721Z,0.00
2022-12-27T04:45:44.867Z,0.00
2022-12-27T04:46:44.694Z,0.00
2022-12-27T04:47:44.888Z,0.00
2022-12-27T04:48:44.737Z,0.00
2022-12-27T04:49:44.690Z,0.00
2022-12-27T04:50:44.451Z,0.00
2022-12-27T04:51:44.707Z,0.00
2022-12-27T04:52:44.386Z,0.00
2022-12-27T04:53:44.417Z,0.00
2022-12-27T04:54:44.476Z,0.00
2022-12-27T04:55:44.429Z,0.00
2022-12-27T04:56:44.169Z,0.00
2022-12-27T04:57:44.444Z,0.00
2022-12-27T04:58:44.076Z,0.00
2022-12-27T04:59:44.167Z,0.00
2022-12-27T05:00:43.985Z,0.00
2022-12-27T05:01:44.176Z,0.00
2022-12-27T05:02:44.073Z,0.00
2022-12-27T05:03:43.943Z,0.00
2022-12-27T05:04:43.798Z,0.00
2022-12-27T05:05:43.884Z,0.00
2022-12-27T05:06:43.709Z,0.00
2022-12-27T05:07:43.898Z,0.00
2022-12-27T05:08:43.960Z,0.00
2022-12-27T05:09:43.571Z,0.00
2022-12-27T05:10:43.536Z,0.00
2022-12-27T05:11:43.726Z,0.00
2022-12-27T05:12:43.431Z,0.00
2022-12-27T05:13:44.560Z,0.00
2022-12-27T05:14:43.595Z,0.00
2022-12-27T05:15:43.348Z,0.00
2022-12-27T05:16:43.357Z,0.00
2022-12-27T05:17:43.198Z,0.00
2022-12-27T05:18:43.365Z,0.00
2022-12-27T05:19:43.112Z,0.00
2022-12-27T05:20:43.173Z,0.00
2022-12-27T05:21:43.188Z,0.00
2022-12-27T05:22:42.971Z,0.00
2022-12-27T05:23:43.192Z,0.00
2022-12-27T05:24:43.054Z,0.00
2022-12-27T05:25:43.023Z,0.00
2022-12-27T05:26:42.803Z,0.00
2022-12-27T05:27:42.742Z,0.00
2022-12-27T05:28:42.822Z,0.00
2022-12-27T05:29:42.646Z,0.00
2022-12-27T05:30:42.837Z,0.00
2022-12-27T05:31:42.622Z,0.00
2022-12-27T05:32:43.685Z,0.00
2022-12-27T05:33:42.463Z,0.00
2022-12-27T05:34:42.682Z,0.00
2022-12-27T05:35:42.508Z,0.00
2022-12-27T05:36:42.386Z,0.00
2022-12-27T05:37:42.283Z,0.00
2022-12-27T05:38:42.235Z,0.00
2022-12-27T05:39:42.183Z,0.00
2022-12-27T05:40:42.310Z,0.00
2022-12-27T05:41:42.111Z,0.00
2022-12-27T05:42:42.318Z,0.00
2022-12-27T05:43:41.996Z,0.00
2022-12-27T05:44:41.952Z,0.00
2022-12-27T05:45:42.136Z,0.00
2022-12-27T05:46:41.917Z,0.00
2022-12-27T05:47:42.141Z,0.00
2022-12-27T05:48:41.956Z,0.00
2022-12-27T05:49:41.752Z,0.00
2022-12-27T05:50:41.679Z,0.00
2022-12-27T05:51:41.762Z,0.00
2022-12-27T05:52:41.645Z,0.00
2022-12-27T05:53:41.778Z,0.00
2022-12-27T05:54:41.630Z,0.00
2022-12-27T05:55:41.601Z,0.00
2022-12-27T05:56:41.598Z,0.00
2022-12-27T05:57:41.350Z,0.00
2022-12-27T05:58:41.612Z,0.00
2022-12-27T05:59:41.382Z,0.00
2022-12-27T06:03:47.390Z,0.00
2022-12-27T06:04:47.054Z,0.00
2022-12-27T06:05:47.196Z,0.00
2022-12-27T06:06:46.896Z,0.00
2022-12-27T06:07:46.852Z,0.00
2022-12-27T06:08:46.805Z,0.00
2022-12-27T06:09:47.020Z,0.00
2022-12-27T06:10:46.868Z,0.00
2022-12-27T06:11:46.838Z,0.00
2022-12-27T06:12:46.625Z,0.00
2022-12-27T06:13:46.582Z,0.00
2022-12-27T06:14:46.651Z,0.00
2022-12-27T06:15:46.477Z,0.00
2022-12-27T06:16:48.754Z,0.00
2022-12-27T06:17:46.379Z,0.00
2022-12-27T06:18:46.472Z,0.00
2022-12-27T06:19:46.292Z,0.00
2022-12-27T06:20:46.492Z,0.00
2022-12-27T06:21:46.547Z,0.00
2022-12-27T06:22:46.292Z,0.00
2022-12-27T06:23:46.112Z,0.00
2022-12-27T06:24:46.312Z,0.00
2022-12-27T06:25:46.012Z,0.00
2022-12-27T06:26:46.117Z,0.00
2022-12-27T06:27:45.939Z,0.00
2022-12-27T06:28:46.138Z,0.00
2022-12-27T06:29:46.018Z,0.00
2022-12-27T06:30:45.949Z,0.00
2022-12-27T06:31:45.815Z,0.00
2022-12-27T06:32:45.963Z,0.00
2022-12-27T06:33:45.644Z,0.00
2022-12-27T06:34:45.776Z,0.00
2022-12-27T06:35:45.571Z,0.00
2022-12-27T06:36:45.510Z,0.00
2022-12-27T06:37:45.604Z,0.00
2022-12-27T06:38:45.411Z,0.00
2022-12-27T06:39:45.597Z,0.00
2022-12-27T06:40:45.325Z,0.00
2022-12-27T06:41:45.609Z,0.00
2022-12-27T06:42:45.416Z,0.00
2022-12-27T06:43:45.474Z,4.00
2022-12-27T06:44:45.431Z,0.00
2022-12-27T06:45:45.216Z,4.00
2022-12-27T06:46:45.240Z,8.00
2022-12-27T06:47:44.992Z,8.00
2022-12-27T06:48:44.949Z,12.00
2022-12-27T06:49:45.057Z,12.00
2022-12-27T06:50:45.118Z,12.00
2022-12-27T06:51:45.067Z,16.00
2022-12-27T06:52:44.767Z,20.00
2022-12-27T06:53:44.714Z,28.00
2022-12-27T06:54:44.673Z,32.00
2022-12-27T06:55:44.893Z,32.00
2022-12-27T06:56:44.627Z,40.00
2022-12-27T06:57:44.709Z,44.00
2022-12-27T06:58:44.485Z,52.00
2022-12-27T06:59:48.086Z,60.00
2022-12-27T07:00:44.523Z,64.00
2022-12-27T07:01:44.421Z,76.00
2022-12-27T07:02:44.859Z,84.00
2022-12-27T07:03:44.282Z,96.00
2022-12-27T07:04:44.352Z,108.00
2022-12-27T07:05:44.400Z,116.00
2022-12-27T07:06:44.256Z,128.00
2022-12-27T07:07:44.086Z,148.00
2022-12-27T07:08:44.071Z,164.00
2022-12-27T07:09:44.003Z,176.00
2022-12-27T07:10:44.132Z,184.00
2022-12-27T07:11:43.950Z,188.00
2022-12-27T07:12:44.004Z,200.00
2022-12-27T07:13:43.800Z,236.00
2022-12-27T07:14:43.804Z,276.00
2022-12-27T07:15:43.698Z,312.00
2022-12-27T07:16:44.087Z,340.00
2022-12-27T07:17:43.829Z,360.00
2022-12-27T07:18:43.595Z,384.00
2022-12-27T07:19:43.639Z,416.00
2022-12-27T07:20:43.470Z,464.00
2022-12-27T07:21:43.660Z,524.00
2022-12-27T07:22:43.384Z,576.00
2022-12-27T07:23:43.461Z,616.00
2022-12-27T07:24:43.280Z,668.00
2022-12-27T07:25:43.274Z,740.00
2022-12-27T07:26:43.196Z,816.00
2022-12-27T07:27:43.340Z,864.00
2022-12-27T07:28:43.116Z,884.00
2022-12-27T07:29:45.663Z,904.00
2022-12-27T07:30:43.016Z,916.00
2022-12-27T07:31:43.144Z,952.00
2022-12-27T07:32:42.917Z,1008.00
2022-12-27T07:33:42.900Z,1088.00
2022-12-27T07:34:42.938Z,1168.00
2022-12-27T07:35:45.253Z,1168.00
2022-12-27T07:36:42.944Z,1136.00
2022-12-27T07:37:42.684Z,1160.00
2022-12-27T07:38:42.758Z,1276.00
2022-12-27T07:39:42.591Z,1468.00
2022-12-27T07:40:42.771Z,1708.00
2022-12-27T07:41:42.495Z,1992.00
2022-12-27T07:42:42.575Z,2276.00
2022-12-27T07:43:42.405Z,2580.00
2022-12-27T07:44:42.595Z,2572.00
2022-12-27T07:45:42.356Z,2160.00
2022-12-27T07:46:42.403Z,1944.00
2022-12-27T07:47:42.234Z,2012.00
2022-12-27T07:48:42.223Z,2324.00
2022-12-27T07:49:42.121Z,2688.00
2022-12-27T07:50:42.291Z,2932.00
2022-12-27T07:51:42.236Z,3100.00
2022-12-27T07:52:41.989Z,3280.00
2022-12-27T07:53:42.047Z,3628.00
2022-12-27T07:54:41.901Z,3864.00
2022-12-27T07:55:42.054Z,3740.00
2022-12-27T07:56:41.830Z,3616.00
2022-12-27T07:57:41.870Z,3424.00
2022-12-27T07:58:41.713Z,3480.00
2022-12-27T07:59:41.884Z,3440.00
2022-12-27T08:00:41.632Z,3220.00
2022-12-27T08:01:41.731Z,3108.00
2022-12-27T08:02:41.759Z,3292.00
2022-12-27T08:03:41.818Z,3428.00
2022-12-27T08:04:41.515Z,3548.00
2022-12-27T08:05:41.523Z,3780.00
2022-12-27T08:06:41.343Z,4172.00
2022-12-27T08:07:41.432Z,4712.00
2022-12-27T08:08:41.263Z,5188.00
2022-12-27T08:09:41.242Z,5236.00
2022-12-27T08:10:41.166Z,5040.00
2022-12-27T08:11:41.143Z,4756.00
2022-12-27T08:12:41.076Z,4636.00
2022-12-27T08:13:41.226Z,5004.00
2022-12-27T08:14:41.178Z,5360.00
2022-12-27T08:15:40.930Z,5504.00
2022-12-27T08:16:41.020Z,5288.00
2022-12-27T08:17:40.838Z,5148.00
2022-12-27T08:18:41.002Z,4972.00
2022-12-27T08:19:40.745Z,4848.00
2022-12-27T08:20:40.807Z,4464.00
2022-12-27T08:21:40.667Z,4300.00
2022-12-27T08:22:40.823Z,4320.00
2022-12-27T08:23:40.564Z,4484.00
2022-12-27T08:24:40.837Z,4732.00
2022-12-27T08:25:46.787Z,5160.00
2022-12-27T08:26:40.436Z,5948.00
2022-12-27T08:27:40.452Z,6852.00
2022-12-27T08:28:40.335Z,7604.00
2022-12-27T08:29:40.464Z,7596.00
2022-12-27T08:30:40.517Z,7232.00
2022-12-27T08:31:40.202Z,6852.00
2022-12-27T08:32:40.287Z,6852.00
2022-12-27T08:33:40.345Z,6932.00
2022-12-27T08:34:40.309Z,7088.00
2022-12-27T08:35:52.600Z,7380.00
2022-12-27T08:36:56.417Z,7700.00
2022-12-27T08:37:39.930Z,7988.00
2022-12-27T08:38:40.119Z,8192.00
2022-12-27T08:39:39.865Z,8388.00
2022-12-27T08:40:39.930Z,8580.00
2022-12-27T08:41:39.740Z,8520.00
2022-12-27T08:42:39.707Z,8364.00
2022-12-27T08:43:39.747Z,8288.00
2022-12-27T08:44:39.661Z,8416.00
2022-12-27T08:45:40.116Z,8612.00
2022-12-27T08:46:39.662Z,8824.00
2022-12-27T08:47:39.478Z,8820.00
2022-12-27T08:48:39.853Z,8728.00
2022-12-27T08:49:39.395Z,8664.00
2022-12-27T08:50:39.396Z,8680.00
2022-12-27T08:51:41.032Z,8648.00
2022-12-27T08:52:39.405Z,8340.00
2022-12-27T08:53:39.450Z,8048.00
2022-12-27T08:54:39.188Z,7956.00
2022-12-27T08:55:39.222Z,8048.00
2022-12-27T08:56:39.075Z,8268.00
2022-12-27T08:57:39.295Z,8376.00
2022-12-27T08:58:38.990Z,8412.00
2022-12-27T08:59:38.957Z,8552.00
2022-12-27T09:00:39.255Z,8832.00
2022-12-27T09:01:39.026Z,8992.00
2022-12-27T09:02:38.958Z,9016.00
2022-12-27T09:03:38.759Z,8952.00
2022-12-27T09:04:38.708Z,8984.00
2022-12-27T09:05:41.957Z,9140.00
2022-12-27T09:06:38.697Z,9328.00
2022-12-27T09:07:38.571Z,9396.00
2022-12-27T09:08:38.709Z,9568.00
2022-12-27T09:09:38.478Z,9880.00
2022-12-27T09:10:38.456Z,9900.00
2022-12-27T09:11:38.722Z,9344.00
2022-12-27T09:12:38.347Z,8824.00
2022-12-27T09:13:38.533Z,8704.00
2022-12-27T09:14:38.279Z,9032.00
2022-12-27T09:15:39.603Z,9448.00
2022-12-27T09:16:38.192Z,9584.00
2022-12-27T09:17:38.360Z,9372.00
2022-12-27T09:18:38.072Z,9056.00
2022-12-27T09:19:38.172Z,8680.00
2022-12-27T09:20:38.233Z,8412.00
2022-12-27T09:21:37.955Z,8324.00
2022-12-27T09:22:37.983Z,8372.00
2022-12-27T09:23:37.848Z,8564.00
2022-12-27T09:24:38.204Z,8700.00
2022-12-27T09:25:37.778Z,8732.00
2022-12-27T09:26:37.824Z,8800.00
2022-12-27T09:27:37.693Z,8892.00
2022-12-27T09:28:37.825Z,8904.00
2022-12-27T09:29:40.449Z,8916.00
2022-12-27T09:30:37.634Z,8964.00
2022-12-27T09:31:37.512Z,8996.00
2022-12-27T09:32:37.852Z,9032.00
2022-12-27T09:33:37.399Z,9220.00
2022-12-27T09:34:37.464Z,9428.00
2022-12-27T09:35:38.756Z,9852.00
2022-12-27T09:36:37.473Z,10008.00
2022-12-27T09:37:37.219Z,9908.00
2022-12-27T09:38:37.216Z,9652.00
2022-12-27T09:39:37.290Z,9676.00
2022-12-27T09:40:37.076Z,9812.00
2022-12-27T09:42:45.869Z,9960.00
2022-12-27T09:43:04.701Z,10184.00
2022-12-27T09:43:37.045Z,10484.00
2022-12-27T09:44:37.175Z,10868.00
2022-12-27T09:45:36.928Z,11248.00
2022-12-27T09:46:36.856Z,11184.00
2022-12-27T09:47:36.940Z,11304.00
2022-12-27T09:48:36.730Z,11976.00
2022-12-27T09:49:36.752Z,12728.00
2022-12-27T09:50:36.624Z,12760.00
2022-12-27T09:51:36.763Z,12752.00
2022-12-27T09:52:36.534Z,12808.00
2022-12-27T09:53:36.571Z,11896.00
2022-12-27T09:54:36.628Z,12028.00
2022-12-27T09:55:36.589Z,12604.00
2022-12-27T09:57:09.547Z,14132.00
2022-12-27T09:57:36.306Z,19968.00
2022-12-27T09:58:36.416Z,14068.00
2022-12-27T09:59:36.226Z,14484.00
2022-12-27T10:00:37.977Z,16800.00
2022-12-27T10:01:36.507Z,22976.00
2022-12-27T10:02:36.167Z,24224.00
2022-12-27T10:03:36.223Z,24672.00
2022-12-27T10:05:09.683Z,29920.00
2022-12-27T10:05:35.984Z,28832.00
2022-12-27T10:06:36.051Z,25024.00
2022-12-27T10:07:35.891Z,26528.00
2022-12-27T10:08:36.064Z,31520.00
2022-12-27T10:09:35.779Z,31072.00
2022-12-27T10:10:35.900Z,29824.00
2022-12-27T10:11:35.680Z,20512.00
2022-12-27T10:12:35.926Z,27456.00
2022-12-27T10:13:35.607Z,29344.00
2022-12-27T10:14:36.740Z,28512.00
2022-12-27T10:15:35.821Z,28544.00
2022-12-27T10:16:35.718Z,30464.00
2022-12-27T10:17:35.423Z,29984.00
2022-12-27T10:18:35.380Z,29440.00
2022-12-27T10:19:35.348Z,28800.00
2022-12-27T10:20:35.443Z,32000.00
2022-12-27T10:21:35.546Z,32128.00
2022-12-27T10:22:35.456Z,28928.00
2022-12-27T10:23:35.181Z,28320.00
2022-12-27T10:24:35.130Z,25440.00
2022-12-27T10:25:35.288Z,23840.00
2022-12-27T10:26:35.080Z,23520.00
2022-12-27T10:27:35.107Z,23520.00
2022-12-27T10:28:34.963Z,26464.00
2022-12-27T10:29:35.305Z,28096.00
2022-12-27T10:30:34.890Z,26592.00
2022-12-27T10:31:35.189Z,25760.00
2022-12-27T10:32:34.803Z,26944.00
2022-12-27T10:33:34.920Z,27008.00
2022-12-27T10:34:34.722Z,28544.00
2022-12-27T10:35:34.945Z,30560.00
2022-12-27T10:36:34.793Z,30496.00
2022-12-27T10:37:34.745Z,30944.00
2022-12-27T10:38:34.566Z,31392.00
2022-12-27T10:39:34.763Z,31808.00
2022-12-27T10:40:34.724Z,31200.00
2022-12-27T10:41:34.625Z,31168.00
2022-12-27T10:42:34.580Z,33792.00
2022-12-27T10:43:34.369Z,35584.00
2022-12-27T10:44:34.398Z,36544.00
2022-12-27T10:45:34.320Z,36544.00
2022-12-27T10:46:34.438Z,35072.00
2022-12-27T10:47:34.461Z,34272.00
2022-12-27T10:49:10.898Z,32832.00
2022-12-27T10:49:34.422Z,31808.00
2022-12-27T10:50:34.116Z,31520.00
2022-12-27T10:51:34.244Z,31616.00
2022-12-27T10:52:34.004Z,30784.00
2022-12-27T10:53:33.968Z,28192.00
2022-12-27T10:54:34.263Z,27072.00
2022-12-27T10:55:33.960Z,18272.00
2022-12-27T10:56:34.065Z,14776.00
2022-12-27T10:57:33.825Z,17600.00
2022-12-27T10:58:33.877Z,13284.00
2022-12-27T10:59:33.738Z,22112.00
2022-12-27T11:00:33.901Z,19264.00
2022-12-27T11:01:33.735Z,19072.00
2022-12-27T11:02:33.773Z,19328.00
2022-12-27T11:03:33.578Z,21280.00
2022-12-27T11:04:33.534Z,22752.00
2022-12-27T11:05:33.734Z,21888.00
2022-12-27T11:06:33.577Z,21696.00
2022-12-27T11:07:33.554Z,18944.00
2022-12-27T11:08:33.372Z,22496.00
2022-12-27T11:09:33.569Z,25216.00
2022-12-27T11:10:33.306Z,19968.00
2022-12-27T11:11:33.355Z,17952.00
2022-12-27T11:12:33.245Z,23744.00
2022-12-27T11:13:33.372Z,26912.00
2022-12-27T11:14:33.431Z,23488.00
2022-12-27T11:15:33.183Z,20000.00
2022-12-27T11:16:33.179Z,21664.00
2022-12-27T11:17:33.196Z,24544.00
2022-12-27T11:18:32.966Z,34112.00
2022-12-27T11:19:33.008Z,33024.00
2022-12-27T11:20:32.910Z,33408.00
2022-12-27T11:21:33.034Z,19840.00
2022-12-27T11:22:32.804Z,16132.00
2022-12-27T11:23:33.038Z,15872.00
2022-12-27T11:24:32.717Z,16896.00
2022-12-27T11:25:33.060Z,18080.00
2022-12-27T11:26:32.641Z,18144.00
2022-12-27T11:27:32.600Z,18176.00
2022-12-27T11:28:32.659Z,19168.00
2022-12-27T11:29:32.530Z,19072.00
2022-12-27T11:30:32.680Z,19200.00
2022-12-27T11:31:32.486Z,21632.00
2022-12-27T11:32:32.489Z,25472.00
2022-12-27T11:33:32.497Z,24928.00
2022-12-27T11:34:32.325Z,20896.00
2022-12-27T11:35:32.521Z,21184.00
2022-12-27T11:36:32.234Z,20160.00
2022-12-27T11:37:32.533Z,21408.00
2022-12-27T11:38:32.175Z,19488.00
2022-12-27T11:39:32.130Z,17408.00
2022-12-27T11:40:32.134Z,19392.00
2022-12-27T11:41:32.017Z,16832.00
2022-12-27T11:42:32.162Z,12964.00
2022-12-27T11:43:31.936Z,13172.00
2022-12-27T11:44:31.981Z,14648.00
2022-12-27T11:45:32.037Z,14816.00
2022-12-27T11:46:32.033Z,15464.00
2022-12-27T11:47:31.768Z,16440.00
2022-12-27T11:48:32.009Z,16248.00
2022-12-27T11:49:31.672Z,21056.00
2022-12-27T11:50:31.814Z,18432.00
2022-12-27T11:51:31.812Z,15912.00
2022-12-27T11:52:31.811Z,15976.00
2022-12-27T11:53:31.505Z,14824.00
2022-12-27T11:54:31.643Z,13448.00
2022-12-27T11:55:31.425Z,13528.00
2022-12-27T11:56:31.639Z,13948.00
2022-12-27T11:57:31.354Z,14648.00
2022-12-27T11:58:31.458Z,15508.00
2022-12-27T11:59:31.251Z,15924.00
2022-12-27T12:00:31.464Z,15488.00
2022-12-27T12:01:31.337Z,15180.00
2022-12-27T12:02:31.300Z,15548.00
2022-12-27T12:03:31.100Z,15836.00
2022-12-27T12:04:31.293Z,16024.00
2022-12-27T12:05:31.006Z,16260.00
2022-12-27T12:06:34.392Z,17056.00
2022-12-27T12:07:30.904Z,17248.00
2022-12-27T12:08:30.857Z,17280.00
2022-12-27T12:09:30.815Z,17888.00
2022-12-27T12:10:30.932Z,18912.00
2022-12-27T12:11:30.980Z,18944.00
2022-12-27T12:12:30.935Z,18880.00
2022-12-27T12:13:30.677Z,19616.00
2022-12-27T12:14:30.599Z,19456.00
2022-12-27T12:15:30.758Z,20320.00
2022-12-27T12:16:30.541Z,20896.00
2022-12-27T12:17:35.702Z,18976.00
2022-12-27T12:18:30.423Z,17472.00
2022-12-27T12:19:30.782Z,17440.00
2022-12-27T12:20:30.587Z,19264.00
2022-12-27T12:21:30.293Z,20192.00
2022-12-27T12:22:30.403Z,19552.00
2022-12-27T12:23:30.203Z,18432.00
2022-12-27T12:24:30.420Z,16272.00
2022-12-27T12:25:30.313Z,15492.00
2022-12-27T12:26:30.074Z,15708.00
2022-12-27T12:27:30.124Z,15464.00
2022-12-27T12:28:57.185Z,14580.00
2022-12-27T12:29:30.137Z,13488.00
2022-12-27T12:30:29.910Z,13224.00
2022-12-27T12:31:30.171Z,13516.00
2022-12-27T12:32:29.821Z,13896.00
2022-12-27T12:33:29.959Z,13892.00
2022-12-27T12:34:29.734Z,14036.00
2022-12-27T12:35:29.800Z,14720.00
2022-12-27T12:36:29.647Z,14252.00
2022-12-27T12:37:29.789Z,23968.00
2022-12-27T12:38:29.558Z,16384.00
2022-12-27T12:39:29.616Z,25952.00
2022-12-27T12:40:29.472Z,26688.00
2022-12-27T12:41:29.610Z,24512.00